createdAt,value
2022-12-22T00:02:17.900Z,1.32
2022-12-22T00:05:05.003Z,1.16
2022-12-22T00:07:50.244Z,1.09
2022-12-22T00:10:35.284Z,1.17
2022-12-22T00:13:20.150Z,1.08
2022-12-22T00:16:05.383Z,1.06
2022-12-22T00:18:50.407Z,1.02
2022-12-22T00:21:35.385Z,1.01
2022-12-22T00:24:20.743Z,1.59
2022-12-22T00:27:05.810Z,1.45
2022-12-22T00:29:55.580Z,1.35
2022-12-22T00:32:41.365Z,1.47
2022-12-22T00:35:30.752Z,1.65
2022-12-22T00:38:15.507Z,1.64
2022-12-22T00:41:00.753Z,1.52
2022-12-22T00:43:45.883Z,1.54
2022-12-22T00:46:32.885Z,1.35
2022-12-22T00:49:18.089Z,1.36
2022-12-22T00:52:03.590Z,1.29
2022-12-22T00:54:48.803Z,1.36
2022-12-22T00:57:35.985Z,1.41
2022-12-22T01:00:22.851Z,1.21
2022-12-22T01:03:07.999Z,1.47
2022-12-22T01:05:53.161Z,1.18
2022-12-22T01:08:38.343Z,1.03
2022-12-22T01:11:23.504Z,1.31
2022-12-22T01:14:08.701Z,1.30
2022-12-22T01:16:54.017Z,1.25
2022-12-22T01:19:38.987Z,1.66
2022-12-22T01:22:26.758Z,1.51
2022-12-22T01:25:11.619Z,1.53
2022-12-22T01:27:56.718Z,1.34
2022-12-22T01:30:41.783Z,1.39
2022-12-22T01:33:30.368Z,1.92
2022-12-22T01:36:15.564Z,1.43
2022-12-22T01:39:00.509Z,1.30
2022-12-22T01:41:45.803Z,1.33
2022-12-22T01:44:35.134Z,1.28
2022-12-22T01:47:39.107Z,1.47
2022-12-22T01:50:24.513Z,1.40
2022-12-22T01:53:10.814Z,1.63
2022-12-22T01:55:58.969Z,1.75
2022-12-22T01:58:46.467Z,1.71
2022-12-22T02:01:31.760Z,1.68
2022-12-22T02:04:16.962Z,1.53
2022-12-22T02:07:04.244Z,1.34
2022-12-22T02:09:55.484Z,1.28
2022-12-22T02:12:49.932Z,1.42
2022-12-22T02:15:44.244Z,1.44
2022-12-22T02:18:33.415Z,1.45
2022-12-22T02:21:23.651Z,1.36
2022-12-22T02:24:08.856Z,1.43
2022-12-22T02:27:11.057Z,1.52
2022-12-22T02:29:59.163Z,1.44
2022-12-22T02:32:44.644Z,1.21
2022-12-22T02:35:31.259Z,1.26
2022-12-22T02:38:35.150Z,1.20
2022-12-22T02:41:23.503Z,1.10
2022-12-22T02:44:27.671Z,1.10
2022-12-22T02:47:33.149Z,1.09
2022-12-22T02:50:27.527Z,0.99
2022-12-22T02:53:13.924Z,0.84
2022-12-22T02:55:59.223Z,0.84
2022-12-22T02:58:44.620Z,0.78
2022-12-22T03:01:29.915Z,0.77
2022-12-22T03:04:15.269Z,0.64
2022-12-22T03:07:00.123Z,0.44
2022-12-22T03:09:45.369Z,0.40
2022-12-22T03:12:30.371Z,0.27
2022-12-22T03:15:15.272Z,0.12
2022-12-22T03:18:00.202Z,0.25
2022-12-22T03:20:45.155Z,0.19
2022-12-22T03:23:30.439Z,0.18
2022-12-22T03:25:56.995Z,0.30
2022-12-22T03:28:24.836Z,0.37
2022-12-22T03:30:55.386Z,0.34
2022-12-22T03:33:22.315Z,0.34
2022-12-22T03:35:48.784Z,0.34
2022-12-22T03:38:15.299Z,0.38
2022-12-22T03:40:44.371Z,0.43
2022-12-22T03:43:33.954Z,0.37
2022-12-22T03:46:19.241Z,0.22
2022-12-22T03:49:05.846Z,0.33
2022-12-22T03:51:33.084Z,0.17
2022-12-22T03:53:59.828Z,0.11
2022-12-22T03:56:26.291Z,0.34
2022-12-22T03:58:52.766Z,0.51
2022-12-22T04:01:19.405Z,0.39
2022-12-22T04:03:46.009Z,0.67
2022-12-22T04:06:12.445Z,0.70
2022-12-22T04:08:38.908Z,0.69
2022-12-22T04:11:24.217Z,0.73
2022-12-22T04:13:50.671Z,0.40
2022-12-22T04:16:17.145Z,0.35
2022-12-22T04:18:43.639Z,0.42
2022-12-22T04:21:10.101Z,0.69
2022-12-22T04:23:36.532Z,0.72
2022-12-22T04:26:02.998Z,0.67
2022-12-22T04:28:29.476Z,0.61
2022-12-22T04:30:55.953Z,0.65
2022-12-22T04:33:22.450Z,0.78
2022-12-22T04:35:48.928Z,0.66
2022-12-22T04:38:15.428Z,0.68
2022-12-22T04:40:41.987Z,0.69
2022-12-22T04:43:08.461Z,0.88
2022-12-22T04:45:35.058Z,0.75
2022-12-22T04:48:01.583Z,0.65
2022-12-22T04:50:27.999Z,0.76
2022-12-22T04:52:54.440Z,0.66
2022-12-22T04:55:20.986Z,0.72
2022-12-22T04:57:47.435Z,0.75
2022-12-22T05:00:14.177Z,0.73
2022-12-22T05:02:40.822Z,0.70
2022-12-22T05:05:07.809Z,0.61
2022-12-22T05:07:34.214Z,0.44
2022-12-22T05:10:00.710Z,0.38
2022-12-22T05:12:45.787Z,0.28
2022-12-22T05:15:12.867Z,0.28
2022-12-22T05:17:39.315Z,0.26
2022-12-22T05:20:06.130Z,0.31
2022-12-22T05:22:32.608Z,0.37
2022-12-22T05:24:59.106Z,0.35
2022-12-22T05:27:25.530Z,0.48
2022-12-22T05:29:51.982Z,0.20
2022-12-22T05:32:18.460Z,0.23
2022-12-22T05:34:44.952Z,0.33
2022-12-22T05:37:11.451Z,0.26
2022-12-22T05:39:37.869Z,0.13
2022-12-22T05:42:04.357Z,0.05
2022-12-22T05:44:30.844Z,0.17
2022-12-22T05:46:57.297Z,0.19
2022-12-22T05:49:23.851Z,0.04
2022-12-22T05:51:51.691Z,-0.21
2022-12-22T05:54:18.209Z,-0.06
2022-12-22T05:56:44.698Z,-0.17
2022-12-22T05:59:11.846Z,-0.08
2022-12-22T06:01:38.661Z,-0.25
2022-12-22T06:04:05.330Z,-0.23
2022-12-22T06:06:31.873Z,-0.20
2022-12-22T06:08:58.391Z,-0.29
2022-12-22T06:11:24.870Z,-0.43
2022-12-22T06:13:51.328Z,-0.20
2022-12-22T06:16:17.765Z,-0.19
2022-12-22T06:18:44.374Z,-0.22
2022-12-22T06:21:10.775Z,-0.06
2022-12-22T06:23:37.221Z,-0.15
2022-12-22T06:26:03.756Z,-0.35
2022-12-22T06:28:31.219Z,-0.33
2022-12-22T06:30:57.691Z,-0.29
2022-12-22T06:33:24.208Z,-0.32
2022-12-22T06:35:57.567Z,-0.21
2022-12-22T06:38:25.493Z,-0.33
2022-12-22T06:40:51.950Z,-0.19
2022-12-22T06:43:18.437Z,-0.28
2022-12-22T06:45:45.570Z,-0.17
2022-12-22T06:48:12.713Z,-0.23
2022-12-22T06:50:39.585Z,-0.13
2022-12-22T06:53:07.419Z,-0.19
2022-12-22T06:55:34.053Z,-0.27
2022-12-22T06:58:00.663Z,-0.44
2022-12-22T07:00:27.144Z,-0.52
2022-12-22T07:02:53.891Z,-0.42
2022-12-22T07:05:20.745Z,-0.35
2022-12-22T07:07:47.188Z,-0.44
2022-12-22T07:10:13.744Z,-0.37
2022-12-22T07:12:40.251Z,-0.35
2022-12-22T07:15:07.491Z,-0.42
2022-12-22T07:17:34.018Z,-0.44
2022-12-22T07:20:00.665Z,-0.11
2022-12-22T07:22:30.341Z,0.17
2022-12-22T07:24:57.427Z,0.58
2022-12-22T07:27:23.968Z,0.92
2022-12-22T07:29:50.426Z,1.47
2022-12-22T07:32:16.912Z,1.70
2022-12-22T07:34:43.389Z,1.92
2022-12-22T07:37:09.870Z,1.65
2022-12-22T07:39:36.453Z,1.92
2022-12-22T07:42:21.587Z,2.13
2022-12-22T07:44:48.022Z,2.97
2022-12-22T07:47:14.479Z,2.72
2022-12-22T07:49:59.355Z,2.45
2022-12-22T07:52:25.838Z,2.36
2022-12-22T07:54:52.291Z,2.09
2022-12-22T07:57:18.899Z,2.13
2022-12-22T07:59:45.359Z,2.36
2022-12-22T08:02:12.654Z,2.72
2022-12-22T08:04:39.386Z,2.78
2022-12-22T08:07:05.929Z,2.56
2022-12-22T08:09:32.393Z,2.41
2022-12-22T08:11:58.866Z,2.19
2022-12-22T08:14:25.334Z,2.30
2022-12-22T08:16:51.977Z,2.21
2022-12-22T08:19:18.501Z,2.22
2022-12-22T08:21:52.153Z,2.18
2022-12-22T08:24:19.588Z,2.10
2022-12-22T08:26:47.218Z,2.29
2022-12-22T08:29:16.334Z,2.28
2022-12-22T08:31:43.608Z,2.23
2022-12-22T08:34:12.806Z,2.07
2022-12-22T08:36:41.909Z,1.94
2022-12-22T08:39:08.563Z,1.98
2022-12-22T08:41:50.862Z,2.11
2022-12-22T08:44:24.734Z,2.03
2022-12-22T08:46:52.108Z,1.98
2022-12-22T08:49:18.838Z,1.68
2022-12-22T08:51:45.318Z,1.84
2022-12-22T08:54:12.291Z,2.23
2022-12-22T08:56:38.830Z,2.23
2022-12-22T08:59:07.797Z,2.97
2022-12-22T09:01:36.593Z,3.48
2022-12-22T09:04:03.839Z,3.95
2022-12-22T09:06:38.353Z,3.79
2022-12-22T09:09:08.423Z,4.09
2022-12-22T09:11:34.908Z,4.31
2022-12-22T09:14:02.145Z,4.59
2022-12-22T09:16:29.681Z,4.92
2022-12-22T09:18:56.226Z,5.21
2022-12-22T09:21:23.530Z,5.15
2022-12-22T09:23:50.049Z,5.75
2022-12-22T09:26:21.226Z,5.93
2022-12-22T09:28:50.559Z,6.16
2022-12-22T09:31:18.278Z,6.15
2022-12-22T09:33:44.761Z,5.45
2022-12-22T09:36:13.199Z,6.84
2022-12-22T09:38:40.407Z,7.24
2022-12-22T09:41:09.830Z,5.96
2022-12-22T09:43:37.156Z,5.76
2022-12-22T09:46:03.680Z,5.47
2022-12-22T09:48:35.236Z,6.02
2022-12-22T09:51:02.010Z,5.82
2022-12-22T09:53:28.455Z,5.51
2022-12-22T09:55:55.143Z,5.47
2022-12-22T09:58:26.665Z,5.22
2022-12-22T10:01:11.413Z,5.52
2022-12-22T10:03:59.871Z,5.76
2022-12-22T10:06:39.198Z,6.68
2022-12-22T10:09:43.933Z,6.17
2022-12-22T10:12:02.603Z,6.36
2022-12-22T10:14:37.257Z,7.00
2022-12-22T10:17:17.479Z,6.97
2022-12-22T10:19:44.120Z,6.78
2022-12-22T10:22:25.139Z,7.09
2022-12-22T10:24:51.993Z,7.18
2022-12-22T10:27:20.193Z,7.39
2022-12-22T10:29:49.588Z,7.07
2022-12-22T10:32:18.451Z,6.59
2022-12-22T10:35:00.025Z,6.68
2022-12-22T10:37:31.415Z,6.61
2022-12-22T10:39:58.044Z,6.98
2022-12-22T10:42:24.514Z,7.06
2022-12-22T10:44:50.982Z,6.82
2022-12-22T10:47:24.005Z,6.86
2022-12-22T10:52:30.603Z,7.55
2022-12-22T10:55:25.822Z,7.48
2022-12-22T10:57:52.897Z,6.91
2022-12-22T11:00:24.033Z,7.11
2022-12-22T11:02:54.866Z,7.65
2022-12-22T11:05:21.674Z,7.46
2022-12-22T11:07:48.238Z,7.96
2022-12-22T11:10:14.728Z,7.96
2022-12-22T11:12:41.223Z,8.59
2022-12-22T11:15:26.227Z,9.07
2022-12-22T11:18:19.305Z,8.36
2022-12-22T11:20:55.015Z,7.41
2022-12-22T11:23:40.784Z,7.80
2022-12-22T11:26:23.759Z,8.28
2022-12-22T11:29:08.843Z,8.98
2022-12-22T11:31:42.896Z,9.21
2022-12-22T11:34:21.865Z,9.49
2022-12-22T11:36:51.375Z,9.50
2022-12-22T11:39:20.638Z,9.50
2022-12-22T11:41:49.817Z,9.90
2022-12-22T11:44:28.372Z,10.41
2022-12-22T11:46:57.893Z,9.84
2022-12-22T11:49:42.335Z,9.29
2022-12-22T11:52:20.976Z,8.60
2022-12-22T11:54:50.407Z,8.28
2022-12-22T11:57:29.102Z,8.63
2022-12-22T12:00:01.379Z,8.14
2022-12-22T12:02:38.156Z,7.97
2022-12-22T12:05:23.484Z,8.29
2022-12-22T12:08:16.574Z,8.60
2022-12-22T12:10:57.088Z,8.98
2022-12-22T12:13:36.608Z,9.43
2022-12-22T12:16:22.370Z,8.88
2022-12-22T12:19:04.046Z,8.43
2022-12-22T12:21:33.539Z,8.31
2022-12-22T12:24:06.191Z,8.11
2022-12-22T12:26:37.544Z,8.04
2022-12-22T12:29:25.293Z,8.19
2022-12-22T12:32:00.887Z,8.44
2022-12-22T12:34:30.342Z,8.07
2022-12-22T12:37:06.875Z,8.09
2022-12-22T12:39:39.435Z,8.45
2022-12-22T12:42:11.688Z,8.64
2022-12-22T12:44:38.537Z,8.39
2022-12-22T12:47:21.361Z,7.94
2022-12-22T12:50:26.718Z,7.94
2022-12-22T12:52:53.162Z,7.99
2022-12-22T12:55:28.051Z,8.07
2022-12-22T12:57:58.748Z,7.66
2022-12-22T13:00:49.915Z,7.56
2022-12-22T13:03:53.073Z,7.06
2022-12-22T13:06:31.097Z,7.10
2022-12-22T13:09:39.862Z,7.08
2022-12-22T13:12:11.856Z,6.94
2022-12-22T13:14:58.251Z,6.84
2022-12-22T13:17:47.885Z,6.94
2022-12-22T13:20:16.019Z,7.02
2022-12-22T13:22:43.544Z,6.87
2022-12-22T13:25:16.792Z,6.90
2022-12-22T13:27:43.646Z,6.92
2022-12-22T13:30:15.412Z,6.98
2022-12-22T13:32:44.641Z,7.04
2022-12-22T13:35:34.685Z,7.23
2022-12-22T13:38:03.666Z,7.05
2022-12-22T13:40:43.264Z,7.01
2022-12-22T13:43:14.831Z,7.19
2022-12-22T13:45:43.411Z,7.40
2022-12-22T13:48:13.907Z,7.31
2022-12-22T13:50:48.575Z,7.36
2022-12-22T13:53:42.285Z,7.31
2022-12-22T13:56:12.365Z,6.91
2022-12-22T13:58:40.581Z,7.20
2022-12-22T14:01:10.143Z,7.07
2022-12-22T14:03:59.436Z,7.09
2022-12-22T14:06:34.209Z,7.00
2022-12-22T14:09:15.015Z,6.89
2022-12-22T14:11:50.825Z,6.79
2022-12-22T14:14:26.222Z,6.74
2022-12-22T14:16:53.506Z,6.83
2022-12-22T14:19:21.246Z,6.92
2022-12-22T14:21:50.532Z,7.70
2022-12-22T14:24:20.615Z,7.15
2022-12-22T14:26:47.446Z,6.71
2022-12-22T14:29:22.795Z,6.75
2022-12-22T14:31:52.227Z,6.44
2022-12-22T14:34:44.911Z,6.39
2022-12-22T14:37:11.426Z,6.21
2022-12-22T14:39:37.887Z,6.26
2022-12-22T14:42:05.129Z,6.20
2022-12-22T14:44:42.052Z,6.29
2022-12-22T14:47:17.769Z,6.31
2022-12-22T14:49:44.401Z,6.12
2022-12-22T14:52:22.989Z,5.92
2022-12-22T14:54:50.649Z,5.89
2022-12-22T14:57:21.173Z,5.95
2022-12-22T15:00:01.618Z,6.10
2022-12-22T15:02:38.750Z,6.10
2022-12-22T15:05:07.139Z,6.09
2022-12-22T15:10:34.755Z,5.87
2022-12-22T15:13:03.789Z,5.68
2022-12-22T15:15:31.533Z,5.57
2022-12-22T15:17:57.969Z,5.68
2022-12-22T15:20:26.993Z,5.54
2022-12-22T15:22:53.875Z,5.59
2022-12-22T15:25:21.808Z,5.72
2022-12-22T15:27:48.382Z,5.55
2022-12-22T15:30:16.282Z,5.56
2022-12-22T15:32:43.914Z,5.56
2022-12-22T15:35:22.962Z,5.56
2022-12-22T15:37:49.573Z,5.67
2022-12-22T15:40:17.444Z,5.56
2022-12-22T15:42:43.924Z,5.30
2022-12-22T15:45:10.681Z,5.07
2022-12-22T15:47:37.270Z,4.93
2022-12-22T15:50:04.294Z,4.89
2022-12-22T15:52:31.695Z,5.04
2022-12-22T15:54:58.350Z,5.10
2022-12-22T15:57:24.951Z,5.21
2022-12-22T15:59:51.400Z,5.06
2022-12-22T16:02:17.953Z,4.90
2022-12-22T16:04:44.634Z,4.94
2022-12-22T16:07:12.215Z,4.83
2022-12-22T16:09:40.640Z,4.88
2022-12-22T16:12:14.612Z,4.85
2022-12-22T16:14:48.015Z,4.76
2022-12-22T16:17:18.227Z,4.87
2022-12-22T16:19:47.652Z,4.81
2022-12-22T16:22:15.521Z,4.62
2022-12-22T16:24:44.084Z,4.74
2022-12-22T16:27:12.491Z,4.80
2022-12-22T16:29:39.848Z,4.63
2022-12-22T16:32:17.606Z,4.40
2022-12-22T16:34:44.603Z,4.32
2022-12-22T16:37:11.070Z,4.70
2022-12-22T16:39:37.527Z,4.66
2022-12-22T16:42:04.295Z,4.82
2022-12-22T16:44:30.792Z,4.60
2022-12-22T16:46:57.714Z,4.62
2022-12-22T16:49:26.775Z,4.63
2022-12-22T16:51:53.781Z,4.56
2022-12-22T16:54:20.557Z,4.39
2022-12-22T16:56:47.093Z,4.28
2022-12-22T16:59:13.990Z,4.09
2022-12-22T17:01:49.668Z,4.16
2022-12-22T17:04:28.322Z,4.17
2022-12-22T17:06:55.309Z,4.60
2022-12-22T17:09:31.037Z,4.46
2022-12-22T17:11:58.394Z,4.40
2022-12-22T17:14:40.027Z,4.26
2022-12-22T17:17:06.826Z,3.94
2022-12-22T17:19:33.265Z,3.92
2022-12-22T17:22:00.228Z,3.74
2022-12-22T17:24:28.481Z,3.59
2022-12-22T17:26:56.560Z,3.95
2022-12-22T17:29:26.050Z,3.64
2022-12-22T17:31:56.369Z,4.28
2022-12-22T17:34:23.180Z,4.09
2022-12-22T17:36:49.838Z,3.79
2022-12-22T17:39:18.626Z,3.70
2022-12-22T17:41:48.988Z,3.72
2022-12-22T17:44:23.132Z,3.72
2022-12-22T17:46:49.993Z,3.58
2022-12-22T17:49:19.718Z,3.98
2022-12-22T17:51:46.339Z,3.80
2022-12-22T17:54:25.894Z,3.66
2022-12-22T17:56:54.374Z,3.68
2022-12-22T17:59:20.842Z,3.53
2022-12-22T18:01:47.399Z,3.45
2022-12-22T18:04:14.056Z,3.41
2022-12-22T18:06:41.217Z,3.65
2022-12-22T18:09:08.142Z,3.47
2022-12-22T18:11:37.096Z,3.55
2022-12-22T18:14:05.691Z,3.42
2022-12-22T18:16:32.192Z,3.44
2022-12-22T18:18:58.741Z,3.60
2022-12-22T18:21:25.351Z,3.53
2022-12-22T18:23:52.126Z,3.48
2022-12-22T18:26:25.984Z,3.58
2022-12-22T18:28:52.544Z,3.63
2022-12-22T18:31:19.132Z,3.65
2022-12-22T18:33:45.747Z,3.64
2022-12-22T18:36:29.691Z,3.51
2022-12-22T18:38:56.627Z,3.56
2022-12-22T18:41:23.942Z,3.52
2022-12-22T18:43:50.829Z,3.43
2022-12-22T18:46:17.587Z,3.31
2022-12-22T18:48:44.138Z,3.36
2022-12-22T18:51:18.610Z,3.36
2022-12-22T18:53:45.159Z,3.72
2022-12-22T18:56:12.811Z,3.30
2022-12-22T18:58:39.920Z,3.14
2022-12-22T19:01:06.661Z,3.01
2022-12-22T19:03:33.280Z,3.07
2022-12-22T19:05:59.872Z,2.98
2022-12-22T19:08:27.221Z,2.88
2022-12-22T19:10:58.140Z,2.61
2022-12-22T19:13:24.578Z,2.82
2022-12-22T19:15:51.460Z,2.90
2022-12-22T19:18:25.967Z,2.73
2022-12-22T19:20:53.886Z,2.83
2022-12-22T19:23:21.746Z,3.01
2022-12-22T19:25:50.436Z,3.03
2022-12-22T19:28:23.124Z,2.91
2022-12-22T19:30:50.098Z,2.84
2022-12-22T19:33:24.634Z,2.78
2022-12-22T19:35:51.116Z,2.83
2022-12-22T19:38:20.048Z,2.71
2022-12-22T19:40:47.215Z,2.56
2022-12-22T19:43:13.775Z,2.59
2022-12-22T19:45:40.367Z,2.50
2022-12-22T19:48:15.092Z,2.62
2022-12-22T19:50:41.547Z,2.59
2022-12-22T19:53:08.614Z,2.56
2022-12-22T19:55:37.637Z,2.26
2022-12-22T19:58:04.206Z,2.43
2022-12-22T20:00:30.715Z,2.55
2022-12-22T20:02:57.581Z,2.50
2022-12-22T20:05:24.143Z,2.50
2022-12-22T20:07:55.373Z,2.53
2022-12-22T20:10:22.579Z,2.59
2022-12-22T20:12:51.033Z,2.52
2022-12-22T20:15:19.111Z,2.40
2022-12-22T20:17:49.709Z,2.59
2022-12-22T20:20:17.479Z,2.64
2022-12-22T20:22:46.597Z,2.67
2022-12-22T20:25:14.345Z,2.59
2022-12-22T20:27:40.776Z,2.58
2022-12-22T20:30:10.212Z,2.53
2022-12-22T20:32:36.692Z,2.65
2022-12-22T20:35:03.218Z,3.19
2022-12-22T20:37:29.731Z,2.84
2022-12-22T20:39:56.265Z,2.76
2022-12-22T20:42:23.436Z,2.64
2022-12-22T20:45:02.349Z,2.59
2022-12-22T20:47:31.354Z,2.37
2022-12-22T20:49:57.825Z,2.45
2022-12-22T20:52:24.496Z,2.43
2022-12-22T20:54:51.136Z,2.30
2022-12-22T20:57:18.953Z,2.37
2022-12-22T20:59:53.998Z,2.19
2022-12-22T21:02:23.596Z,2.19
2022-12-22T21:04:50.231Z,2.38
2022-12-22T21:07:18.512Z,2.49
2022-12-22T21:09:45.028Z,2.57
2022-12-22T21:12:11.493Z,2.61
2022-12-22T21:14:37.940Z,2.71
2022-12-22T21:17:04.520Z,2.64
2022-12-22T21:19:31.060Z,2.69
2022-12-22T21:21:57.487Z,2.70
2022-12-22T21:24:23.955Z,2.71
2022-12-22T21:26:52.537Z,2.71
2022-12-22T21:29:20.751Z,2.70
2022-12-22T21:31:47.303Z,2.77
2022-12-22T21:34:13.745Z,2.93
2022-12-22T21:36:43.385Z,2.88
2022-12-22T21:39:16.015Z,2.82
2022-12-22T21:42:00.795Z,2.77
2022-12-22T21:44:31.530Z,3.03
2022-12-22T21:46:58.173Z,3.09
2022-12-22T21:49:29.386Z,3.52
2022-12-22T21:51:56.062Z,3.21
2022-12-22T21:54:23.905Z,3.11
2022-12-22T21:56:50.763Z,3.22
2022-12-22T21:59:17.381Z,3.05
2022-12-22T22:01:45.331Z,3.09
2022-12-22T22:04:14.384Z,3.03
2022-12-22T22:06:40.811Z,2.99
2022-12-22T22:09:07.543Z,2.98
2022-12-22T22:11:54.323Z,3.07
2022-12-22T22:14:21.366Z,3.18
2022-12-22T22:16:48.162Z,3.33
2022-12-22T22:19:14.619Z,3.11
2022-12-22T22:21:41.061Z,3.12
2022-12-22T22:24:07.542Z,3.19
2022-12-22T22:26:33.981Z,3.22
2022-12-22T22:29:00.417Z,3.20
2022-12-22T22:31:26.927Z,3.10
2022-12-22T22:33:53.435Z,3.13
2022-12-22T22:36:19.879Z,3.33
2022-12-22T22:38:49.975Z,3.25
2022-12-22T22:41:16.517Z,3.14
2022-12-22T22:43:43.000Z,2.83
2022-12-22T22:46:09.515Z,2.82
2022-12-22T22:48:36.033Z,2.77
2022-12-22T22:51:02.590Z,2.74
2022-12-22T22:53:30.658Z,2.64
2022-12-22T22:56:01.203Z,2.72
2022-12-22T22:58:28.231Z,2.66
2022-12-22T23:00:54.679Z,2.55
2022-12-22T23:03:21.395Z,2.49
2022-12-22T23:05:47.911Z,2.51
2022-12-22T23:08:14.331Z,2.51
2022-12-22T23:10:46.732Z,2.59
2022-12-22T23:13:13.176Z,2.43
2022-12-22T23:15:39.609Z,2.28
2022-12-22T23:18:06.163Z,2.21
2022-12-22T23:20:32.613Z,2.00
2022-12-22T23:22:59.055Z,1.99
2022-12-22T23:25:25.577Z,1.89
2022-12-22T23:27:52.014Z,1.98
2022-12-22T23:30:18.446Z,1.94
2022-12-22T23:32:44.996Z,1.91
2022-12-22T23:35:11.480Z,1.92
2022-12-22T23:37:37.897Z,1.92
2022-12-22T23:40:42.007Z,1.85
2022-12-22T23:42:56.614Z,1.91
2022-12-22T23:45:23.565Z,1.75
2022-12-22T23:47:49.979Z,1.56
2022-12-22T23:50:16.448Z,1.83
2022-12-22T23:52:48.959Z,1.58
2022-12-22T23:55:15.900Z,1.72
2022-12-22T23:57:42.359Z,1.65
